首页
METAR-TAF:

METAR-TAF

机场 :

Valdosta Regional Airport

Valdosta, 喬治亞, 美国

纬度: 30-47N, 经度: 083-17W, 海拔: 62米

当前天气观测

该预报发布于22分钟前的09:53 UTC
风速5节,风向东转东北
温度 25°C
湿度 79%
气压 1019 hPa
能見度: 16.1公里
阴天层高于4100英尺

METAR: KVLD 190953Z AUTO 07005KT 10SM OVC041 25/21 A3009 RMK AO2 SLP194 T02500211

时间: 06:15 (10:15 UTC)

预报

该预报发布于4小时和51分钟前的05:24 UTC
预报有效从19日的 06点(UTC)到 20日的 06点(UTC)
风速8节,风向东转东北
能見度: 10公里
散云层高于2500英尺
多云层高于4500英尺
阴天层高于7000英尺
附近有阵雨
从 19日的 1400点(UTC)
风速15节,风向,有时为24节阵风
能見度: 10公里
少量云层高于7000英尺
散云层高于15000英尺
从 20日的 0200点(UTC)
风速10节,风向
能見度: 10公里
少量云层高于4000英尺
散云层高于15000英尺

TAF: KVLD 190524Z 1906/2006 07008KT P6SM VCSH SCT025 BKN045 OVC070 FM191400 09015G24KT P6SM FEW070 SCT150 FM200200 08010KT P6SM FEW040 SCT150

超过4000个机场的气象观测和天气预报(METAR&TAF报告)。

可查询的气象台以黄色和红色小点在地图上表示。

将鼠标移到小点上方,可查看气象台名称。

然后点击查看天气观测和预报。

如需切换地图:点击带黑十字的绿色按钮放大地图;点击带横线的绿色按钮缩小地图;或者点击绿色箭头查看邻近地区的地图。


METAR-TAF: